Time;durP1;ratioP1;P1;durP2;ratioP2;P2;SDS_P1;SDS_P2;PMS_P1;PMS_P2;Temp;Humidity;BMP_temperature;BMP_pressure;BME280_temperature;BME280_humidity;BME280_pressure;Samples;Min_cycle;Max_cycle;Signal;HPM_P1;HPM_P2
2023/08/11 00:00:51;;;;;;;;;;;20.70;51.00;;;;;;1507875;77;947;-57
2023/08/11 00:02:52;;;;;;;;;;;20.70;51.00;;;;;;1497605;77;706;-54
2023/08/11 00:04:54;;;;;;;;;;;20.70;51.10;;;;;;1510747;77;704;-53
2023/08/11 00:06:56;;;;;;;;;;;20.70;51.10;;;;;;1504637;77;1402;-56
2023/08/11 00:08:59;;;;;;;;;;;20.70;50.90;;;;;;1515700;77;1146;-57
2023/08/11 00:11:01;;;;;;;;;;;20.70;50.90;;;;;;1489769;78;787;-54
2023/08/11 00:13:02;;;;;;;;;;;20.70;50.90;;;;;;1507929;77;753;-57
2023/08/11 00:15:05;;;;;;;;;;;20.70;50.90;;;;;;1502503;77;1930;-57
2023/08/11 00:17:07;;;;;;;;;;;20.70;50.80;;;;;;1492218;77;748;-56
2023/08/11 00:19:08;;;;;;;;;;;20.60;50.70;;;;;;1495919;77;1309;-55
2023/08/11 00:21:12;;;;;;;;;;;20.70;50.80;;;;;;1505681;77;785;-57
2023/08/11 00:23:15;;;;;;;;;;;20.70;50.80;;;;;;1505885;77;842;-54
2023/08/11 00:25:17;;;;;;;;;;;20.70;50.80;;;;;;1508060;77;783;-55
2023/08/11 00:27:19;;;;;;;;;;;20.70;50.80;;;;;;1514203;77;766;-55
2023/08/11 00:29:21;;;;;;;;;;;20.60;50.60;;;;;;1521299;76;1142;-56
2023/08/11 00:31:23;;;;;;;;;;;20.70;50.70;;;;;;1487145;78;766;-55
2023/08/11 00:33:25;;;;;;;;;;;20.70;50.80;;;;;;1484768;78;1554;-53
2023/08/11 00:35:27;;;;;;;;;;;20.60;50.70;;;;;;1480470;78;1918;-55
2023/08/11 00:37:29;;;;;;;;;;;20.70;50.90;;;;;;1479683;78;733;-56
2023/08/11 00:39:31;;;;;;;;;;;20.70;50.90;;;;;;1485503;78;1175;-54
2023/08/11 00:41:33;;;;;;;;;;;20.70;50.80;;;;;;1505126;77;730;-54
2023/08/11 00:43:35;;;;;;;;;;;20.60;50.70;;;;;;1491010;77;741;-57
2023/08/11 00:45:38;;;;;;;;;;;20.60;50.70;;;;;;1510878;77;800;-54
2023/08/11 00:47:41;;;;;;;;;;;20.60;50.70;;;;;;1505633;77;1577;-55
2023/08/11 00:49:43;;;;;;;;;;;20.70;50.80;;;;;;1505839;77;1300;-56
2023/08/11 00:51:45;;;;;;;;;;;20.60;50.60;;;;;;1506785;77;739;-54
2023/08/11 00:53:47;;;;;;;;;;;20.60;50.60;;;;;;1519312;77;934;-55
2023/08/11 00:55:48;;;;;;;;;;;20.60;50.70;;;;;;1496470;77;1976;-55
2023/08/11 00:57:50;;;;;;;;;;;20.60;50.70;;;;;;1508207;77;741;-57
2023/08/11 00:59:52;;;;;;;;;;;20.60;50.70;;;;;;1510634;77;1189;-55
2023/08/11 01:01:54;;;;;;;;;;;20.60;50.80;;;;;;1502830;77;1610;-57
2023/08/11 01:03:57;;;;;;;;;;;20.60;50.90;;;;;;1500604;77;810;-57
2023/08/11 01:06:03;;;;;;;;;;;20.50;50.90;;;;;;1508392;77;683;-54
2023/08/11 01:08:07;;;;;;;;;;;20.60;50.90;;;;;;1508513;77;1214;-53
2023/08/11 01:10:14;;;;;;;;;;;20.50;51.00;;;;;;1503035;77;1084;-57
2023/08/11 01:12:17;;;;;;;;;;;20.50;50.90;;;;;;1512753;77;2073;-53
2023/08/11 01:14:22;;;;;;;;;;;20.60;51.00;;;;;;1518225;77;1937;-56
2023/08/11 01:16:24;;;;;;;;;;;20.60;50.90;;;;;;1502598;77;1650;-54
2023/08/11 01:18:25;;;;;;;;;;;20.50;51.00;;;;;;1508464;78;1110;-55
2023/08/11 01:20:27;;;;;;;;;;;20.50;51.00;;;;;;1527549;76;690;-57
2023/08/11 01:22:30;;;;;;;;;;;20.50;51.20;;;;;;1525303;76;749;-55
2023/08/11 01:24:32;;;;;;;;;;;20.50;51.20;;;;;;1514450;76;795;-56
2023/08/11 01:26:34;;;;;;;;;;;20.50;51.30;;;;;;1530912;76;742;-56
2023/08/11 01:28:36;;;;;;;;;;;20.50;51.20;;;;;;1511275;76;1135;-54
2023/08/11 01:30:38;;;;;;;;;;;20.50;51.20;;;;;;1517413;76;1480;-56
2023/08/11 01:32:40;;;;;;;;;;;20.50;51.20;;;;;;1517006;76;645;-57
2023/08/11 01:34:42;;;;;;;;;;;20.50;51.10;;;;;;1518989;76;1939;-54
2023/08/11 01:36:43;;;;;;;;;;;20.50;51.10;;;;;;1501650;78;766;-55
2023/08/11 01:38:46;;;;;;;;;;;20.50;51.20;;;;;;1491061;78;1173;-54
2023/08/11 01:40:48;;;;;;;;;;;20.50;51.30;;;;;;1510641;77;802;-56
2023/08/11 01:42:50;;;;;;;;;;;20.50;51.30;;;;;;1500074;77;723;-56
2023/08/11 01:44:52;;;;;;;;;;;20.40;51.10;;;;;;1510514;77;1498;-54
2023/08/11 01:46:55;;;;;;;;;;;20.50;51.20;;;;;;1510974;77;719;-56
2023/08/11 01:48:57;;;;;;;;;;;20.50;51.20;;;;;;1510573;76;1151;-55
2023/08/11 01:50:59;;;;;;;;;;;20.50;51.30;;;;;;1492220;77;671;-57
2023/08/11 01:53:00;;;;;;;;;;;20.40;51.30;;;;;;1503151;77;783;-56
2023/08/11 01:55:03;;;;;;;;;;;20.40;51.40;;;;;;1508666;77;1929;-55
2023/08/11 01:57:05;;;;;;;;;;;20.50;51.60;;;;;;1513010;77;777;-56
2023/08/11 01:59:08;;;;;;;;;;;20.40;51.50;;;;;;1512977;77;1458;-54
2023/08/11 02:01:13;;;;;;;;;;;20.50;51.60;;;;;;1512026;77;1824;-57
2023/08/11 02:03:14;;;;;;;;;;;20.50;51.60;;;;;;1504479;77;1002;-57
2023/08/11 02:05:16;;;;;;;;;;;20.50;51.60;;;;;;1506804;77;718;-56
2023/08/11 02:07:18;;;;;;;;;;;20.50;51.80;;;;;;1509847;77;767;-55
2023/08/11 02:09:20;;;;;;;;;;;20.50;51.80;;;;;;1518990;76;1173;-57
2023/08/11 02:11:22;;;;;;;;;;;20.50;51.80;;;;;;1519387;77;729;-55
2023/08/11 02:13:24;;;;;;;;;;;20.50;51.80;;;;;;1504738;77;1497;-56
2023/08/11 02:15:26;;;;;;;;;;;20.40;51.80;;;;;;1513606;77;1943;-55
2023/08/11 02:17:28;;;;;;;;;;;20.40;51.80;;;;;;1504341;77;780;-55
2023/08/11 02:19:30;;;;;;;;;;;20.50;51.80;;;;;;1506970;77;1158;-57
2023/08/11 02:21:32;;;;;;;;;;;20.50;51.80;;;;;;1506573;77;778;-57
2023/08/11 02:23:34;;;;;;;;;;;20.40;51.80;;;;;;1516647;77;810;-57
2023/08/11 02:25:36;;;;;;;;;;;20.50;52.00;;;;;;1505605;77;667;-57
2023/08/11 02:27:38;;;;;;;;;;;20.40;52.00;;;;;;1510078;77;1594;-56
2023/08/11 02:29:40;;;;;;;;;;;20.40;52.00;;;;;;1502187;77;1132;-57
2023/08/11 02:31:42;;;;;;;;;;;20.40;52.10;;;;;;1514532;77;745;-57
2023/08/11 02:33:44;;;;;;;;;;;20.50;52.10;;;;;;1510739;77;714;-57
2023/08/11 02:35:45;;;;;;;;;;;20.40;52.10;;;;;;1512423;77;1922;-55
2023/08/11 02:37:48;;;;;;;;;;;20.50;52.10;;;;;;1509896;77;818;-55
2023/08/11 02:39:49;;;;;;;;;;;20.40;52.00;;;;;;1505525;77;1519;-54
2023/08/11 02:41:51;;;;;;;;;;;20.50;52.00;;;;;;1512791;77;729;-57
2023/08/11 02:43:53;;;;;;;;;;;20.40;52.00;;;;;;1506596;77;605;-58
2023/08/11 02:45:55;;;;;;;;;;;20.40;51.90;;;;;;1506738;77;702;-57
2023/08/11 02:47:57;;;;;;;;;;;20.40;52.00;;;;;;1503272;77;792;-57
2023/08/11 02:49:59;;;;;;;;;;;20.40;52.00;;;;;;1510202;77;1162;-57
2023/08/11 02:52:01;;;;;;;;;;;20.40;52.00;;;;;;1504253;77;792;-54
2023/08/11 02:54:03;;;;;;;;;;;20.40;52.00;;;;;;1504698;77;1316;-55
2023/08/11 02:56:07;;;;;;;;;;;20.40;52.00;;;;;;1501683;77;1942;-56
2023/08/11 02:58:09;;;;;;;;;;;20.50;52.20;;;;;;1509882;77;764;-55
2023/08/11 03:00:14;;;;;;;;;;;20.40;52.10;;;;;;1500239;77;1145;-57
2023/08/11 03:02:16;;;;;;;;;;;20.40;52.30;;;;;;1508955;77;761;-57
2023/08/11 03:04:18;;;;;;;;;;;20.40;52.30;;;;;;1506932;77;742;-55
2023/08/11 03:06:20;;;;;;;;;;;20.40;52.30;;;;;;1508935;77;694;-57
2023/08/11 03:08:22;;;;;;;;;;;20.40;52.30;;;;;;1505658;77;1430;-55
2023/08/11 03:10:24;;;;;;;;;;;20.40;52.50;;;;;;1499674;77;1157;-55
2023/08/11 03:12:28;;;;;;;;;;;20.40;52.50;;;;;;1515279;77;742;-57
2023/08/11 03:14:29;;;;;;;;;;;20.40;52.60;;;;;;1508566;77;1749;-57
2023/08/11 03:16:32;;;;;;;;;;;20.40;52.70;;;;;;1519399;77;1945;-54
2023/08/11 03:18:35;;;;;;;;;;;20.40;52.60;;;;;;1502216;77;1159;-57
2023/08/11 03:20:37;;;;;;;;;;;20.40;52.70;;;;;;1506911;77;851;-55
2023/08/11 03:22:40;;;;;;;;;;;20.40;52.80;;;;;;1511055;77;1542;-57
2023/08/11 03:24:42;;;;;;;;;;;20.40;52.80;;;;;;1523776;77;919;-56
2023/08/11 03:26:44;;;;;;;;;;;20.40;52.80;;;;;;1514508;77;772;-57
2023/08/11 03:28:46;;;;;;;;;;;20.40;52.80;;;;;;1509697;77;1103;-55
2023/08/11 03:30:47;;;;;;;;;;;20.40;52.80;;;;;;1523898;77;726;-55
2023/08/11 03:32:49;;;;;;;;;;;20.40;52.80;;;;;;1509434;77;808;-54
2023/08/11 03:34:52;;;;;;;;;;;20.40;52.80;;;;;;1505881;77;1931;-57
2023/08/11 03:36:54;;;;;;;;;;;20.40;52.80;;;;;;1501785;77;1310;-56
2023/08/11 03:38:57;;;;;;;;;;;20.40;52.80;;;;;;1511206;77;1153;-57
2023/08/11 03:40:58;;;;;;;;;;;20.40;52.90;;;;;;1515732;77;664;-55
2023/08/11 03:43:00;;;;;;;;;;;20.50;52.90;;;;;;1527397;77;648;-56
2023/08/11 03:45:02;;;;;;;;;;;20.40;52.90;;;;;;1513066;77;744;-54
2023/08/11 03:47:05;;;;;;;;;;;20.40;52.90;;;;;;1510581;77;776;-55
2023/08/11 03:49:07;;;;;;;;;;;20.40;52.90;;;;;;1510962;77;1125;-55
2023/08/11 03:51:09;;;;;;;;;;;20.40;53.00;;;;;;1502802;77;1339;-55
2023/08/11 03:53:12;;;;;;;;;;;20.40;53.10;;;;;;1512449;77;791;-57
2023/08/11 03:55:13;;;;;;;;;;;20.40;53.10;;;;;;1520863;76;1946;-54
2023/08/11 03:57:15;;;;;;;;;;;20.40;53.00;;;;;;1515301;77;788;-55
2023/08/11 03:59:17;;;;;;;;;;;20.40;53.10;;;;;;1510002;77;1082;-54
2023/08/11 04:01:19;;;;;;;;;;;20.40;53.10;;;;;;1514079;77;709;-56
2023/08/11 04:03:22;;;;;;;;;;;20.40;53.10;;;;;;1508182;77;724;-58
2023/08/11 04:05:24;;;;;;;;;;;20.40;53.10;;;;;;1511398;77;1514;-54
2023/08/11 04:07:27;;;;;;;;;;;20.40;53.10;;;;;;1508476;77;766;-58
2023/08/11 04:09:29;;;;;;;;;;;20.30;53.20;;;;;;1515496;77;1170;-54
2023/08/11 04:11:32;;;;;;;;;;;20.40;53.20;;;;;;1498839;77;684;-57
2023/08/11 04:13:34;;;;;;;;;;;20.40;53.20;;;;;;1509071;77;705;-53
2023/08/11 04:15:36;;;;;;;;;;;20.40;53.20;;;;;;1513450;77;1933;-56
2023/08/11 04:17:38;;;;;;;;;;;20.30;53.20;;;;;;1510749;77;721;-56
2023/08/11 04:19:41;;;;;;;;;;;20.30;53.30;;;;;;1514536;77;1554;-57
2023/08/11 04:21:43;;;;;;;;;;;20.40;53.40;;;;;;1513905;77;783;-55
2023/08/11 04:23:45;;;;;;;;;;;20.80;53.80;;;;;;1506723;77;706;-58
2023/08/11 04:25:47;;;;;;;;;;;20.40;53.50;;;;;;1515056;77;770;-55
2023/08/11 04:27:49;;;;;;;;;;;20.40;53.60;;;;;;1518192;77;718;-57
2023/08/11 04:29:51;;;;;;;;;;;20.30;53.60;;;;;;1510178;77;1146;-55
2023/08/11 04:31:53;;;;;;;;;;;20.40;53.70;;;;;;1507734;77;782;-56
2023/08/11 04:33:55;;;;;;;;;;;20.30;53.80;;;;;;1504522;77;1535;-56
2023/08/11 04:35:57;;;;;;;;;;;20.20;53.60;;;;;;1514683;77;1939;-57
2023/08/11 04:37:59;;;;;;;;;;;20.40;53.80;;;;;;1496394;77;691;-55
2023/08/11 04:40:03;;;;;;;;;;;20.30;53.80;;;;;;1511241;77;1125;-56
2023/08/11 04:42:04;;;;;;;;;;;20.30;53.90;;;;;;1503910;77;1486;-56
2023/08/11 04:44:06;;;;;;;;;;;20.30;53.80;;;;;;1520946;77;1071;-56
2023/08/11 04:46:08;;;;;;;;;;;20.40;53.80;;;;;;1501073;77;808;-55
2023/08/11 04:48:10;;;;;;;;;;;20.40;53.90;;;;;;1504695;77;1297;-57
2023/08/11 04:50:12;;;;;;;;;;;20.40;53.90;;;;;;1504518;77;1099;-57
2023/08/11 04:52:13;;;;;;;;;;;20.40;53.90;;;;;;1505571;77;789;-55
2023/08/11 04:54:15;;;;;;;;;;;20.40;53.90;;;;;;1507173;77;702;-56
2023/08/11 04:56:17;;;;;;;;;;;20.40;54.10;;;;;;1514112;77;1944;-56
2023/08/11 04:58:19;;;;;;;;;;;20.40;54.10;;;;;;1506856;77;773;-55
2023/08/11 05:00:22;;;;;;;;;;;20.40;54.20;;;;;;1510887;77;1072;-57
2023/08/11 05:02:24;;;;;;;;;;;20.40;54.20;;;;;;1511199;77;1479;-56
2023/08/11 05:04:26;;;;;;;;;;;20.40;54.20;;;;;;1509674;77;730;-56
2023/08/11 05:06:28;;;;;;;;;;;20.40;54.20;;;;;;1504110;77;804;-55
2023/08/11 05:08:31;;;;;;;;;;;20.40;54.20;;;;;;1508197;77;1190;-55
2023/08/11 05:10:33;;;;;;;;;;;20.40;54.30;;;;;;1508851;77;801;-55
2023/08/11 05:12:35;;;;;;;;;;;20.40;54.20;;;;;;1506874;77;798;-56
2023/08/11 05:14:36;;;;;;;;;;;20.40;54.30;;;;;;1509766;77;1533;-55
2023/08/11 05:16:38;;;;;;;;;;;20.40;54.40;;;;;;1506543;77;1954;-58
2023/08/11 05:18:40;;;;;;;;;;;20.50;54.60;;;;;;1516364;77;1156;-57
2023/08/11 05:20:43;;;;;;;;;;;20.40;54.50;;;;;;1498093;77;682;-55
2023/08/11 05:22:47;;;;;;;;;;;20.50;54.60;;;;;;1518967;77;712;-57
2023/08/11 05:24:49;;;;;;;;;;;20.50;54.70;;;;;;1516366;77;734;-57
2023/08/11 05:26:51;;;;;;;;;;;20.50;54.80;;;;;;1504451;77;741;-55
2023/08/11 05:28:53;;;;;;;;;;;20.60;54.70;;;;;;1503180;77;1494;-57
2023/08/11 05:30:56;;;;;;;;;;;20.70;54.70;;;;;;1508496;77;694;-57
2023/08/11 05:32:58;;;;;;;;;;;20.80;54.70;;;;;;1509879;77;704;-57
2023/08/11 05:34:59;;;;;;;;;;;20.90;54.70;;;;;;1513094;77;694;-56
2023/08/11 05:37:03;;;;;;;;;;;20.90;54.70;;;;;;1511318;77;1945;-56
2023/08/11 05:39:06;;;;;;;;;;;21.00;54.70;;;;;;1510599;77;1165;-57
2023/08/11 05:41:09;;;;;;;;;;;21.00;54.50;;;;;;1505579;77;797;-56
2023/08/11 05:43:10;;;;;;;;;;;21.10;54.50;;;;;;1501327;77;1505;-57
2023/08/11 05:45:12;;;;;;;;;;;21.10;54.40;;;;;;1510860;77;679;-56
2023/08/11 05:47:14;;;;;;;;;;;21.20;54.40;;;;;;1512423;77;800;-57
2023/08/11 05:49:16;;;;;;;;;;;21.20;54.40;;;;;;1508709;77;1135;-56
2023/08/11 05:51:18;;;;;;;;;;;21.20;54.30;;;;;;1518645;77;717;-56
2023/08/11 05:53:20;;;;;;;;;;;21.30;54.40;;;;;;1515966;77;728;-57
2023/08/11 05:55:22;;;;;;;;;;;21.40;54.30;;;;;;1506791;77;796;-56
2023/08/11 05:57:24;;;;;;;;;;;21.40;54.40;;;;;;1515131;77;1913;-56
2023/08/11 05:59:26;;;;;;;;;;;21.40;54.30;;;;;;1506024;77;1197;-58
2023/08/11 06:01:28;;;;;;;;;;;21.50;54.20;;;;;;1505652;77;711;-58
2023/08/11 06:03:32;;;;;;;;;;;21.60;53.70;;;;;;1507272;77;793;-56
2023/08/11 06:05:34;;;;;;;;;;;21.60;53.60;;;;;;1501361;77;744;-57
2023/08/11 06:07:36;;;;;;;;;;;21.70;54.00;;;;;;1488848;77;747;-57
2023/08/11 06:09:39;;;;;;;;;;;21.60;53.40;;;;;;1508118;77;1204;-56
2023/08/11 06:11:41;;;;;;;;;;;21.70;53.20;;;;;;1512877;77;1543;-57
2023/08/11 06:13:42;;;;;;;;;;;21.80;52.90;;;;;;1511514;77;763;-57
2023/08/11 06:15:44;;;;;;;;;;;21.80;53.00;;;;;;1500762;77;711;-58
2023/08/11 06:17:49;;;;;;;;;;;21.90;53.20;;;;;;1508209;77;1957;-56
2023/08/11 06:19:50;;;;;;;;;;;22.00;52.70;;;;;;1514032;77;1638;-56
2023/08/11 06:21:52;;;;;;;;;;;21.90;52.70;;;;;;1519805;77;754;-57
2023/08/11 06:23:53;;;;;;;;;;;22.00;52.60;;;;;;1507682;77;816;-58
2023/08/11 06:25:55;;;;;;;;;;;22.10;52.30;;;;;;1494035;77;1376;-57
2023/08/11 06:27:57;;;;;;;;;;;22.10;52.10;;;;;;1516125;77;769;-58
2023/08/11 06:29:59;;;;;;;;;;;22.10;51.60;;;;;;1508491;77;1140;-55
2023/08/11 06:32:01;;;;;;;;;;;22.10;51.80;;;;;;1508812;77;772;-57
2023/08/11 06:34:03;;;;;;;;;;;22.10;52.00;;;;;;1507126;77;748;-56
2023/08/11 06:36:05;;;;;;;;;;;22.20;51.50;;;;;;1499827;77;1927;-56
2023/08/11 06:38:07;;;;;;;;;;;22.20;51.50;;;;;;1515258;77;840;-56
2023/08/11 06:40:09;;;;;;;;;;;22.30;51.40;;;;;;1508176;77;1572;-56
2023/08/11 06:42:11;;;;;;;;;;;22.30;51.50;;;;;;1502911;76;742;-57
2023/08/11 06:44:13;;;;;;;;;;;22.30;51.00;;;;;;1515138;77;753;-56
2023/08/11 06:46:15;;;;;;;;;;;22.30;51.20;;;;;;1501999;77;809;-57
2023/08/11 06:48:17;;;;;;;;;;;22.30;51.60;;;;;;1510679;77;851;-57
2023/08/11 06:50:19;;;;;;;;;;;22.40;51.10;;;;;;1507701;77;1102;-58
2023/08/11 06:52:21;;;;;;;;;;;22.30;51.30;;;;;;1510435;77;749;-56
2023/08/11 06:54:23;;;;;;;;;;;22.30;51.30;;;;;;1495791;77;1448;-57
2023/08/11 06:56:25;;;;;;;;;;;22.30;51.30;;;;;;1504336;77;1945;-56
2023/08/11 06:58:27;;;;;;;;;;;22.20;51.20;;;;;;1491368;77;1133;-57
2023/08/11 07:00:29;;;;;;;;;;;22.20;51.30;;;;;;1514733;77;800;-58
2023/08/11 07:02:31;;;;;;;;;;;22.20;51.50;;;;;;1506059;76;716;-56
2023/08/11 07:04:32;;;;;;;;;;;22.20;51.60;;;;;;1510959;77;725;-56
2023/08/11 07:06:34;;;;;;;;;;;22.20;51.50;;;;;;1513142;77;943;-58
2023/08/11 07:08:36;;;;;;;;;;;22.10;51.60;;;;;;1509331;77;1520;-57
2023/08/11 07:10:38;;;;;;;;;;;22.10;52.00;;;;;;1506263;77;741;-56
2023/08/11 07:12:40;;;;;;;;;;;22.10;52.10;;;;;;1505330;77;710;-56
2023/08/11 07:14:42;;;;;;;;;;;22.10;52.10;;;;;;1516156;77;760;-56
2023/08/11 07:16:44;;;;;;;;;;;22.10;52.10;;;;;;1506994;77;1921;-57
2023/08/11 07:18:46;;;;;;;;;;;22.10;51.90;;;;;;1513602;77;1169;-56
2023/08/11 07:20:48;;;;;;;;;;;22.00;52.00;;;;;;1505294;77;791;-55
2023/08/11 07:22:49;;;;;;;;;;;22.00;51.80;;;;;;1510917;77;1357;-56
2023/08/11 07:24:51;;;;;;;;;;;22.10;52.30;;;;;;1506291;77;752;-57
2023/08/11 07:26:53;;;;;;;;;;;22.00;52.00;;;;;;1515141;77;764;-56
2023/08/11 07:28:55;;;;;;;;;;;22.00;52.10;;;;;;1502357;77;1156;-55
2023/08/11 07:30:57;;;;;;;;;;;21.90;52.40;;;;;;1506665;77;727;-55
2023/08/11 07:33:03;;;;;;;;;;;22.00;52.30;;;;;;1508519;77;756;-56
2023/08/11 07:35:02;;;;;;;;;;;22.00;52.20;;;;;;1515457;77;1134;-57
2023/08/11 07:37:05;;;;;;;;;;;22.00;51.90;;;;;;1510012;77;1953;-55
2023/08/11 07:39:08;;;;;;;;;;;22.10;52.00;;;;;;1503509;77;1175;-57
2023/08/11 07:41:10;;;;;;;;;;;22.00;52.10;;;;;;1507247;77;793;-57
2023/08/11 07:43:12;;;;;;;;;;;22.00;52.30;;;;;;1510271;77;660;-56
2023/08/11 07:45:14;;;;;;;;;;;22.00;52.00;;;;;;1518048;77;770;-56
2023/08/11 07:47:16;;;;;;;;;;;22.00;51.80;;;;;;1501010;77;807;-58
2023/08/11 07:49:18;;;;;;;;;;;22.10;52.20;;;;;;1513793;77;1371;-56
2023/08/11 07:51:19;;;;;;;;;;;22.00;52.20;;;;;;1514149;77;801;-57
2023/08/11 07:53:21;;;;;;;;;;;22.00;52.50;;;;;;1512321;77;743;-56
2023/08/11 07:55:23;;;;;;;;;;;22.00;51.90;;;;;;1508542;77;779;-58
2023/08/11 07:57:25;;;;;;;;;;;22.00;52.30;;;;;;1515122;76;1935;-55
2023/08/11 07:59:27;;;;;;;;;;;22.00;52.10;;;;;;1503244;77;1249;-57
2023/08/11 08:01:29;;;;;;;;;;;22.00;51.90;;;;;;1502068;77;804;-57
2023/08/11 08:03:31;;;;;;;;;;;22.00;51.80;;;;;;1514145;77;1416;-57
2023/08/11 08:05:33;;;;;;;;;;;22.00;52.10;;;;;;1513150;77;777;-56
2023/08/11 08:07:35;;;;;;;;;;;22.00;52.10;;;;;;1516968;77;800;-56
2023/08/11 08:09:38;;;;;;;;;;;22.00;52.00;;;;;;1514336;77;1168;-58
2023/08/11 08:11:43;;;;;;;;;;;22.00;51.80;;;;;;1504372;77;816;-57
2023/08/11 08:13:44;;;;;;;;;;;22.10;52.00;;;;;;1514391;77;1314;-58
2023/08/11 08:15:46;;;;;;;;;;;22.00;52.10;;;;;;1505444;77;764;-57
2023/08/11 08:17:48;;;;;;;;;;;22.00;52.00;;;;;;1509093;77;1937;-57
2023/08/11 08:19:50;;;;;;;;;;;22.00;52.00;;;;;;1507768;77;1155;-56
2023/08/11 08:21:52;;;;;;;;;;;22.10;52.10;;;;;;1503065;77;732;-58
2023/08/11 08:23:54;;;;;;;;;;;22.00;52.00;;;;;;1503942;77;776;-55
2023/08/11 08:25:56;;;;;;;;;;;22.10;52.20;;;;;;1507744;77;757;-56
2023/08/11 08:27:58;;;;;;;;;;;22.00;52.30;;;;;;1505511;77;731;-56
2023/08/11 08:30:00;;;;;;;;;;;22.00;52.10;;;;;;1519156;77;1143;-57
2023/08/11 08:32:01;;;;;;;;;;;22.00;51.90;;;;;;1508876;77;1510;-55
2023/08/11 08:34:04;;;;;;;;;;;22.00;51.90;;;;;;1504964;77;756;-56
2023/08/11 08:36:06;;;;;;;;;;;22.10;52.10;;;;;;1515690;77;859;-57
2023/08/11 08:38:08;;;;;;;;;;;22.00;52.00;;;;;;1509904;77;1941;-56
2023/08/11 08:40:12;;;;;;;;;;;22.00;51.90;;;;;;1507662;77;1107;-55
2023/08/11 08:42:15;;;;;;;;;;;22.00;52.00;;;;;;1509405;77;778;-57
2023/08/11 08:44:16;;;;;;;;;;;22.00;52.00;;;;;;1518818;76;779;-57
2023/08/11 08:46:20;;;;;;;;;;;22.10;52.10;;;;;;1508619;77;1483;-55
2023/08/11 08:48:23;;;;;;;;;;;22.00;51.90;;;;;;1509384;77;727;-56
2023/08/11 08:50:25;;;;;;;;;;;22.00;52.10;;;;;;1519572;76;1158;-58
2023/08/11 08:52:27;;;;;;;;;;;22.00;51.90;;;;;;1505558;77;839;-57
2023/08/11 08:54:29;;;;;;;;;;;22.10;52.00;;;;;;1504776;77;600;-57
2023/08/11 08:56:31;;;;;;;;;;;22.00;51.90;;;;;;1519118;77;680;-56
2023/08/11 08:58:33;;;;;;;;;;;22.00;52.00;;;;;;1503495;77;1954;-58
2023/08/11 09:00:35;;;;;;;;;;;22.00;52.00;;;;;;1514371;77;1327;-55
2023/08/11 09:02:37;;;;;;;;;;;22.00;52.00;;;;;;1509244;77;736;-56
2023/08/11 09:04:38;;;;;;;;;;;22.00;52.10;;;;;;1497689;77;751;-57
2023/08/11 09:06:40;;;;;;;;;;;22.00;52.10;;;;;;1487109;78;728;-58
2023/08/11 09:08:43;;;;;;;;;;;22.10;52.10;;;;;;1504867;77;1159;-56
2023/08/11 09:10:45;;;;;;;;;;;22.00;52.10;;;;;;1504804;77;758;-56
2023/08/11 09:12:48;;;;;;;;;;;22.00;52.20;;;;;;1505549;77;916;-56
2023/08/11 09:14:50;;;;;;;;;;;22.00;52.20;;;;;;1513067;77;1428;-58
2023/08/11 09:16:52;;;;;;;;;;;22.10;52.20;;;;;;1498807;77;771;-57
2023/08/11 09:18:54;;;;;;;;;;;22.10;52.10;;;;;;1510143;77;1945;-57
2023/08/11 09:20:56;;;;;;;;;;;22.00;52.00;;;;;;1511148;77;729;-57
2023/08/11 09:22:58;;;;;;;;;;;22.10;52.10;;;;;;1507275;77;797;-55
2023/08/11 09:25:00;;;;;;;;;;;22.10;52.10;;;;;;1505230;77;721;-57
2023/08/11 09:27:03;;;;;;;;;;;22.00;52.00;;;;;;1494607;77;685;-57
2023/08/11 09:29:05;;;;;;;;;;;22.00;52.00;;;;;;1479533;77;1534;-55
2023/08/11 09:31:07;;;;;;;;;;;22.10;52.10;;;;;;1508941;77;756;-56
2023/08/11 09:33:09;;;;;;;;;;;22.00;51.90;;;;;;1503266;77;802;-57
2023/08/11 09:35:12;;;;;;;;;;;22.00;51.90;;;;;;1510943;77;710;-56
2023/08/11 09:37:14;;;;;;;;;;;22.00;52.00;;;;;;1511049;77;1902;-55
2023/08/11 09:39:16;;;;;;;;;;;22.00;51.90;;;;;;1507189;77;1103;-56
2023/08/11 09:41:18;;;;;;;;;;;22.00;51.90;;;;;;1503999;77;750;-56
2023/08/11 09:43:20;;;;;;;;;;;22.00;51.90;;;;;;1500959;77;1520;-58
2023/08/11 09:45:22;;;;;;;;;;;22.10;52.10;;;;;;1502077;77;733;-57
2023/08/11 09:47:24;;;;;;;;;;;22.10;51.90;;;;;;1497179;77;730;-57
2023/08/11 09:49:26;;;;;;;;;;;22.00;51.80;;;;;;1510957;77;1180;-57
2023/08/11 09:51:28;;;;;;;;;;;22.00;51.80;;;;;;1494387;77;771;-56
2023/08/11 09:53:33;;;;;;;;;;;22.00;51.90;;;;;;1514741;77;787;-57
2023/08/11 09:55:34;;;;;;;;;;;22.00;51.80;;;;;;1509877;77;1627;-57
2023/08/11 09:57:37;;;;;;;;;;;22.00;51.90;;;;;;1509361;77;1925;-57
2023/08/11 09:59:39;;;;;;;;;;;22.10;52.00;;;;;;1499908;77;1739;-58
2023/08/11 10:01:44;;;;;;;;;;;22.10;52.10;;;;;;1514686;77;1057;-56
2023/08/11 10:03:49;;;;;;;;;;;22.00;52.00;;;;;;1498973;77;720;-57
2023/08/11 10:05:51;;;;;;;;;;;22.10;52.10;;;;;;1515073;77;1223;-55
2023/08/11 10:07:53;;;;;;;;;;;22.00;52.00;;;;;;1507506;77;709;-55
2023/08/11 10:09:55;;;;;;;;;;;22.00;51.90;;;;;;1513858;77;1556;-56
2023/08/11 10:11:57;;;;;;;;;;;22.00;51.90;;;;;;1508067;77;725;-56
2023/08/11 10:13:59;;;;;;;;;;;22.00;51.80;;;;;;1512025;77;743;-56
2023/08/11 10:16:01;;;;;;;;;;;22.00;51.90;;;;;;1508332;77;840;-57
2023/08/11 10:18:03;;;;;;;;;;;22.00;51.80;;;;;;1507743;77;1948;-56
2023/08/11 10:20:07;;;;;;;;;;;22.00;51.80;;;;;;1512349;77;1143;-56
2023/08/11 10:22:09;;;;;;;;;;;22.00;51.80;;;;;;1509965;77;798;-57
2023/08/11 10:24:10;;;;;;;;;;;22.10;52.10;;;;;;1509316;77;1575;-56
2023/08/11 10:26:12;;;;;;;;;;;22.00;51.90;;;;;;1496595;77;745;-57
2023/08/11 10:28:15;;;;;;;;;;;22.00;52.10;;;;;;1504224;77;708;-57
2023/08/11 10:30:17;;;;;;;;;;;22.00;52.00;;;;;;1499401;77;1074;-56
2023/08/11 10:32:19;;;;;;;;;;;22.00;52.00;;;;;;1505256;77;635;-56
2023/08/11 10:34:24;;;;;;;;;;;22.00;52.10;;;;;;1486042;78;1236;-57
2023/08/11 10:36:27;;;;;;;;;;;22.00;52.00;;;;;;1507167;77;730;-56
2023/08/11 10:38:29;;;;;;;;;;;22.00;52.00;;;;;;1506721;77;1933;-56
2023/08/11 10:40:34;;;;;;;;;;;22.00;52.10;;;;;;1514746;77;796;-56
2023/08/11 10:42:36;;;;;;;;;;;22.00;52.00;;;;;;1504960;77;747;-57
2023/08/11 10:44:40;;;;;;;;;;;22.00;52.00;;;;;;1509473;77;759;-56
2023/08/11 10:46:42;;;;;;;;;;;22.00;52.00;;;;;;1498422;77;1180;-56
2023/08/11 10:48:43;;;;;;;;;;;22.00;52.10;;;;;;1501457;77;1264;-57
2023/08/11 10:50:45;;;;;;;;;;;22.00;52.00;;;;;;1504050;76;789;-56
2023/08/11 10:52:47;;;;;;;;;;;22.00;52.20;;;;;;1507156;77;1554;-57
2023/08/11 10:54:50;;;;;;;;;;;22.00;52.10;;;;;;1510397;77;731;-57
2023/08/11 10:56:52;;;;;;;;;;;22.00;51.90;;;;;;1503406;77;805;-56
2023/08/11 10:58:56;;;;;;;;;;;22.00;52.20;;;;;;1512264;77;1949;-57
2023/08/11 11:00:58;;;;;;;;;;;22.00;52.10;;;;;;1508162;77;1773;-56
2023/08/11 11:03:00;;;;;;;;;;;22.00;52.10;;;;;;1512792;77;667;-57
2023/08/11 11:05:02;;;;;;;;;;;22.00;52.30;;;;;;1510340;77;736;-58
2023/08/11 11:07:04;;;;;;;;;;;22.00;52.30;;;;;;1508453;77;1498;-56
2023/08/11 11:09:07;;;;;;;;;;;22.00;52.50;;;;;;1486834;78;1129;-56
2023/08/11 11:11:08;;;;;;;;;;;22.00;52.20;;;;;;1507342;77;761;-57
2023/08/11 11:13:10;;;;;;;;;;;22.00;52.10;;;;;;1519697;77;888;-56
2023/08/11 11:15:12;;;;;;;;;;;22.00;52.40;;;;;;1505742;77;738;-58
2023/08/11 11:17:14;;;;;;;;;;;22.00;52.40;;;;;;1511645;77;659;-57
2023/08/11 11:19:16;;;;;;;;;;;22.00;52.10;;;;;;1510779;77;1911;-57
2023/08/11 11:21:18;;;;;;;;;;;22.00;52.40;;;;;;1506918;77;1676;-57
2023/08/11 11:23:20;;;;;;;;;;;22.00;52.60;;;;;;1515710;77;1080;-57
2023/08/11 11:25:22;;;;;;;;;;;22.00;52.60;;;;;;1509368;77;723;-56
2023/08/11 11:27:24;;;;;;;;;;;22.00;52.50;;;;;;1511546;77;727;-57
2023/08/11 11:29:28;;;;;;;;;;;22.00;52.70;;;;;;1503149;77;1133;-57
2023/08/11 11:31:30;;;;;;;;;;;22.00;52.70;;;;;;1514942;77;724;-57
2023/08/11 11:33:32;;;;;;;;;;;22.00;52.80;;;;;;1515076;77;726;-57
2023/08/11 11:35:34;;;;;;;;;;;22.00;52.70;;;;;;1507271;77;1577;-57
2023/08/11 11:37:36;;;;;;;;;;;21.90;52.40;;;;;;1508456;77;745;-57
2023/08/11 11:39:38;;;;;;;;;;;22.00;52.60;;;;;;1500939;77;1954;-58
2023/08/11 11:41:40;;;;;;;;;;;22.00;52.30;;;;;;1506289;77;807;-58
2023/08/11 11:43:42;;;;;;;;;;;22.00;52.60;;;;;;1516752;77;789;-56
2023/08/11 11:45:47;;;;;;;;;;;22.00;52.60;;;;;;1499676;77;772;-56
2023/08/11 11:47:48;;;;;;;;;;;22.00;52.70;;;;;;1505761;77;1618;-56
2023/08/11 11:49:57;;;;;;;;;;;22.00;52.70;;;;;;1514873;77;1561;-57
2023/08/11 11:52:02;;;;;;;;;;;22.00;52.60;;;;;;1513078;77;660;-56
2023/08/11 11:54:04;;;;;;;;;;;22.00;52.40;;;;;;1512000;77;795;-56
2023/08/11 11:56:07;;;;;;;;;;;22.00;52.50;;;;;;1488223;78;762;-57
2023/08/11 11:58:09;;;;;;;;;;;22.00;52.60;;;;;;1505542;77;1921;-57
2023/08/11 12:00:16;;;;;;;;;;;22.00;52.80;;;;;;1517900;76;1114;-55
2023/08/11 12:02:15;;;;;;;;;;;22.00;52.60;;;;;;1513819;77;1607;-56
2023/08/11 12:04:17;;;;;;;;;;;22.00;52.70;;;;;;1507435;77;1317;-56
2023/08/11 12:06:19;;;;;;;;;;;22.00;52.80;;;;;;1503457;77;769;-57
2023/08/11 12:08:22;;;;;;;;;;;22.00;52.80;;;;;;1505413;77;727;-56